createdAt,value
2023-08-14T00:01:05.590Z,21.36
2023-08-14T00:03:33.105Z,21.36
2023-08-14T00:06:00.389Z,21.32
2023-08-14T00:08:27.563Z,21.31
2023-08-14T00:10:56.368Z,21.35
2023-08-14T00:13:24.062Z,21.35
2023-08-14T00:15:51.326Z,21.33
2023-08-14T00:18:19.692Z,21.33
2023-08-14T00:20:47.008Z,21.37
2023-08-14T00:23:14.319Z,21.38
2023-08-14T00:25:41.658Z,21.37
2023-08-14T00:28:08.789Z,21.34
2023-08-14T00:30:35.954Z,21.36
2023-08-14T00:33:03.033Z,21.37
2023-08-14T00:35:30.596Z,21.37
2023-08-14T00:37:58.022Z,21.37
2023-08-14T00:40:25.265Z,21.40
2023-08-14T00:42:52.233Z,21.48
2023-08-14T00:45:19.184Z,21.57
2023-08-14T00:47:48.182Z,21.61
2023-08-14T00:50:18.018Z,21.65
2023-08-14T00:52:48.883Z,21.63
2023-08-14T00:55:29.785Z,21.65
2023-08-14T00:57:57.916Z,21.65
2023-08-14T01:00:29.334Z,21.56
2023-08-14T01:02:56.595Z,21.48
2023-08-14T01:05:25.035Z,21.42
2023-08-14T01:07:51.843Z,21.41
2023-08-14T01:10:19.365Z,21.47
2023-08-14T01:13:00.282Z,21.50
2023-08-14T01:15:40.385Z,21.48
2023-08-14T01:18:10.979Z,21.49
2023-08-14T01:20:41.425Z,21.51
2023-08-14T01:23:49.806Z,21.50
2023-08-14T01:26:16.900Z,21.52
2023-08-14T01:28:44.556Z,21.54
2023-08-14T01:31:11.750Z,21.55
2023-08-14T01:33:38.898Z,21.55
2023-08-14T01:36:37.488Z,21.54
2023-08-14T01:39:10.885Z,21.55
2023-08-14T01:42:18.167Z,21.57
2023-08-14T01:44:50.163Z,21.61
2023-08-14T01:47:17.978Z,21.61
2023-08-14T01:49:47.134Z,21.58
2023-08-14T01:52:14.308Z,21.54
2023-08-14T01:54:41.334Z,21.51
2023-08-14T01:57:08.482Z,21.45
2023-08-14T01:59:55.999Z,21.46
2023-08-14T02:02:23.227Z,21.45
2023-08-14T02:04:52.919Z,21.42
2023-08-14T02:07:22.542Z,21.41
2023-08-14T02:09:49.347Z,21.41
2023-08-14T02:12:19.308Z,21.44
2023-08-14T02:14:46.499Z,21.44
2023-08-14T02:17:13.334Z,21.41
2023-08-14T02:19:40.262Z,21.41
2023-08-14T02:22:07.241Z,21.41
2023-08-14T02:24:34.451Z,21.37
2023-08-14T02:27:01.313Z,21.37
2023-08-14T02:29:28.504Z,21.43
2023-08-14T02:31:55.343Z,21.47
2023-08-14T02:34:44.086Z,21.49
2023-08-14T02:37:12.706Z,21.55
2023-08-14T02:39:40.359Z,21.57
2023-08-14T02:42:08.342Z,21.54
2023-08-14T02:44:36.420Z,21.42
2023-08-14T02:47:04.870Z,21.29
2023-08-14T02:49:32.039Z,21.21
2023-08-14T02:51:59.011Z,21.22
2023-08-14T02:54:25.927Z,21.10
2023-08-14T02:56:54.860Z,21.13
2023-08-14T02:59:22.798Z,21.14
2023-08-14T03:01:50.135Z,21.10
2023-08-14T03:04:18.354Z,21.04
2023-08-14T03:06:45.594Z,21.00
2023-08-14T03:09:13.147Z,20.95
2023-08-14T03:11:40.289Z,20.95
2023-08-14T03:14:07.693Z,20.97
2023-08-14T03:16:34.960Z,20.99
2023-08-14T03:19:01.886Z,21.02
2023-08-14T03:21:29.268Z,20.98
2023-08-14T03:23:56.723Z,20.94
2023-08-14T03:26:23.863Z,20.95
2023-08-14T03:28:51.014Z,20.97
2023-08-14T03:31:17.961Z,20.98
2023-08-14T03:33:44.815Z,20.96
2023-08-14T03:36:11.901Z,20.92
2023-08-14T03:38:38.831Z,20.88
2023-08-14T03:41:05.826Z,20.86
2023-08-14T03:43:33.342Z,20.80
2023-08-14T03:46:00.513Z,20.77
2023-08-14T03:48:27.620Z,20.73
2023-08-14T03:50:54.846Z,20.77
2023-08-14T03:53:21.994Z,20.82
2023-08-14T03:55:50.086Z,20.83
2023-08-14T03:58:18.260Z,20.78
2023-08-14T04:00:48.102Z,20.74
2023-08-14T04:03:15.895Z,20.77
2023-08-14T04:05:43.049Z,20.79
2023-08-14T04:08:10.310Z,20.74
2023-08-14T04:10:38.189Z,20.75
2023-08-14T04:13:05.148Z,20.77
2023-08-14T04:15:32.891Z,20.79
2023-08-14T04:18:00.308Z,20.79
2023-08-14T04:20:27.274Z,20.66
2023-08-14T04:22:54.248Z,20.58
2023-08-14T04:25:21.528Z,20.60
2023-08-14T04:27:48.464Z,20.64
2023-08-14T04:30:15.574Z,20.69
2023-08-14T04:32:42.607Z,20.71
2023-08-14T04:35:10.263Z,20.70
2023-08-14T04:37:37.642Z,20.70
2023-08-14T04:40:06.391Z,20.66
2023-08-14T04:42:34.490Z,20.62
2023-08-14T04:45:01.878Z,20.57
2023-08-14T04:47:28.865Z,20.60
2023-08-14T04:49:56.045Z,20.61
2023-08-14T04:52:23.455Z,20.57
2023-08-14T04:54:51.125Z,20.51
2023-08-14T04:57:18.265Z,20.48
2023-08-14T04:59:45.488Z,20.52
2023-08-14T05:02:12.431Z,20.51
2023-08-14T05:04:39.614Z,20.60
2023-08-14T05:07:06.565Z,20.59
2023-08-14T05:09:33.560Z,20.58
2023-08-14T05:12:02.395Z,20.67
2023-08-14T05:14:29.618Z,20.75
2023-08-14T05:16:56.661Z,20.78
2023-08-14T05:19:23.508Z,20.82
2023-08-14T05:21:50.549Z,20.85
2023-08-14T05:24:17.683Z,20.86
2023-08-14T05:26:45.101Z,20.84
2023-08-14T05:29:12.477Z,20.84
2023-08-14T05:31:39.403Z,20.84
2023-08-14T05:34:08.878Z,20.79
2023-08-14T05:36:35.761Z,20.77
2023-08-14T05:39:02.793Z,20.80
2023-08-14T05:41:29.685Z,20.84
2023-08-14T05:43:56.691Z,20.85
2023-08-14T05:46:25.350Z,20.87
2023-08-14T05:48:52.601Z,20.86
2023-08-14T05:51:19.593Z,20.89
2023-08-14T05:53:46.735Z,20.93
2023-08-14T05:56:13.656Z,20.98
2023-08-14T05:58:40.917Z,20.97
2023-08-14T06:01:08.107Z,20.98
2023-08-14T06:03:44.011Z,21.02
2023-08-14T06:06:12.547Z,21.02
2023-08-14T06:08:39.557Z,21.01
2023-08-14T06:11:06.794Z,20.88
2023-08-14T06:13:34.028Z,20.87
2023-08-14T06:16:01.090Z,20.85
2023-08-14T06:18:28.264Z,20.87
2023-08-14T06:20:55.799Z,20.96
2023-08-14T06:23:23.090Z,21.05
2023-08-14T06:25:50.289Z,21.19
2023-08-14T06:28:17.671Z,21.36
2023-08-14T06:30:45.195Z,21.48
2023-08-14T06:33:13.878Z,21.60
2023-08-14T06:35:42.452Z,21.73
2023-08-14T06:38:09.565Z,21.85
2023-08-14T06:40:36.604Z,21.95
2023-08-14T06:43:04.408Z,21.97
2023-08-14T06:45:31.570Z,22.00
2023-08-14T06:47:58.804Z,22.03
2023-08-14T06:50:25.864Z,22.09
2023-08-14T06:52:53.923Z,22.11
2023-08-14T06:55:22.303Z,22.08
2023-08-14T06:57:49.619Z,22.04
2023-08-14T07:00:16.900Z,22.06
2023-08-14T07:02:46.793Z,22.11
2023-08-14T07:05:14.608Z,22.15
2023-08-14T07:07:42.283Z,22.18
2023-08-14T07:10:09.990Z,22.24
2023-08-14T07:12:38.521Z,22.29
2023-08-14T07:15:09.811Z,22.37
2023-08-14T07:17:37.096Z,22.47
2023-08-14T07:20:10.739Z,22.54
2023-08-14T07:22:38.654Z,22.68
2023-08-14T07:25:06.990Z,22.76
2023-08-14T07:27:34.128Z,22.85
2023-08-14T07:30:01.226Z,22.97
2023-08-14T07:32:28.231Z,23.08
2023-08-14T07:34:55.370Z,23.24
2023-08-14T07:37:22.508Z,23.39
2023-08-14T07:39:49.429Z,23.57
2023-08-14T07:42:16.692Z,23.73
2023-08-14T07:44:43.736Z,23.91
2023-08-14T07:47:12.161Z,24.07
2023-08-14T07:49:39.726Z,24.21
2023-08-14T07:52:07.685Z,24.40
2023-08-14T07:58:50.073Z,24.78
2023-08-14T08:01:17.108Z,24.92
2023-08-14T08:03:44.003Z,25.07
2023-08-14T08:06:11.059Z,25.22
2023-08-14T08:08:37.950Z,25.38
2023-08-14T08:11:04.892Z,25.59
2023-08-14T08:13:31.718Z,25.73
2023-08-14T08:15:58.584Z,25.87
2023-08-14T08:18:25.351Z,26.03
2023-08-14T08:20:52.381Z,26.22
2023-08-14T08:23:19.176Z,26.39
2023-08-14T08:25:46.002Z,26.49
2023-08-14T08:28:13.263Z,26.47
2023-08-14T08:30:40.402Z,26.64
2023-08-14T08:33:07.855Z,26.78
2023-08-14T08:35:34.738Z,26.73
2023-08-14T08:38:01.588Z,26.83
2023-08-14T08:40:30.651Z,27.06
2023-08-14T08:43:01.041Z,26.96
2023-08-14T08:45:34.481Z,27.11
2023-08-14T08:48:05.103Z,27.19
2023-08-14T08:50:32.848Z,27.23
2023-08-14T08:53:00.443Z,27.29
2023-08-14T08:55:28.010Z,27.43
2023-08-14T08:57:55.969Z,27.58
2023-08-14T09:00:25.883Z,27.50
2023-08-14T09:02:53.355Z,27.33
2023-08-14T09:05:21.595Z,27.16
2023-08-14T09:07:49.470Z,27.08
2023-08-14T09:10:17.125Z,27.05
2023-08-14T09:12:44.593Z,27.05
2023-08-14T09:15:11.585Z,27.09
2023-08-14T09:17:38.951Z,27.37
2023-08-14T09:20:15.373Z,27.54
2023-08-14T09:22:47.250Z,28.00
2023-08-14T09:25:16.518Z,28.60
2023-08-14T09:27:44.283Z,29.11
2023-08-14T09:30:14.649Z,29.28
2023-08-14T09:32:41.981Z,29.27
2023-08-14T09:35:09.468Z,29.37
2023-08-14T09:37:36.561Z,29.28
2023-08-14T09:40:11.291Z,29.15
2023-08-14T09:42:38.794Z,29.14
2023-08-14T09:45:07.467Z,29.24
2023-08-14T09:47:36.056Z,29.41
2023-08-14T09:50:04.063Z,29.35
2023-08-14T09:52:31.969Z,29.52
2023-08-14T09:57:31.507Z,30.11
2023-08-14T09:59:58.463Z,30.35
2023-08-14T10:02:27.581Z,30.55
2023-08-14T10:04:56.399Z,30.78
2023-08-14T10:07:27.280Z,30.99
2023-08-14T10:09:58.156Z,31.13
2023-08-14T10:12:30.536Z,31.29
2023-08-14T10:15:10.019Z,31.04
2023-08-14T10:18:17.649Z,30.97
2023-08-14T10:20:49.241Z,31.35
2023-08-14T10:23:17.933Z,31.75
2023-08-14T10:25:51.942Z,32.05
2023-08-14T10:28:20.538Z,32.16
2023-08-14T10:30:48.128Z,32.28
2023-08-14T10:33:17.043Z,32.35
2023-08-14T10:35:52.249Z,32.51
2023-08-14T10:38:25.205Z,32.54
2023-08-14T10:41:07.240Z,32.40
2023-08-14T10:43:34.368Z,32.50
2023-08-14T10:46:15.162Z,32.59
2023-08-14T10:48:45.797Z,32.84
2023-08-14T10:51:14.281Z,32.97
2023-08-14T10:53:42.222Z,32.88
2023-08-14T10:56:11.370Z,32.91
2023-08-14T10:58:39.630Z,33.07
2023-08-14T11:01:11.951Z,33.31
2023-08-14T11:04:06.791Z,33.82
2023-08-14T11:06:58.641Z,34.26
2023-08-14T11:09:35.177Z,34.39
2023-08-14T11:12:11.208Z,34.48
2023-08-14T11:14:43.011Z,34.44
2023-08-14T11:17:11.537Z,33.94
2023-08-14T11:19:39.395Z,33.50
2023-08-14T11:22:07.083Z,32.82
2023-08-14T11:24:34.233Z,32.42
2023-08-14T11:27:02.972Z,32.91
2023-08-14T11:29:31.975Z,33.33
2023-08-14T11:32:01.704Z,33.43
2023-08-14T11:34:29.520Z,32.94
2023-08-14T11:39:30.610Z,32.65
2023-08-14T11:41:58.075Z,33.78
2023-08-14T11:44:24.927Z,34.74
2023-08-14T11:46:52.037Z,35.70
2023-08-14T11:49:18.993Z,36.14
2023-08-14T11:51:47.240Z,36.36
2023-08-14T11:54:15.377Z,36.64
2023-08-14T11:56:42.360Z,36.84
2023-08-14T11:59:09.328Z,37.05
2023-08-14T12:01:38.711Z,37.33
2023-08-14T12:04:07.488Z,37.55
2023-08-14T12:06:35.649Z,37.35
2023-08-14T12:09:02.701Z,36.94
2023-08-14T12:11:30.487Z,37.19
2023-08-14T12:13:57.688Z,37.31
2023-08-14T12:16:28.420Z,37.14
2023-08-14T12:18:55.848Z,37.01
2023-08-14T12:21:28.457Z,37.16
2023-08-14T12:23:56.601Z,37.47
2023-08-14T12:26:23.731Z,37.94
2023-08-14T12:28:50.739Z,38.05
2023-08-14T12:31:18.813Z,36.49
2023-08-14T12:33:48.901Z,35.47
2023-08-14T12:36:20.459Z,34.64
2023-08-14T12:38:47.371Z,33.93
2023-08-14T12:41:14.410Z,34.37
2023-08-14T12:43:41.496Z,34.44
2023-08-14T12:46:10.534Z,34.76
2023-08-14T12:48:37.892Z,34.64
2023-08-14T12:51:04.960Z,34.65
2023-08-14T12:53:33.401Z,35.67
2023-08-14T12:56:04.275Z,36.81
2023-08-14T12:58:31.912Z,37.20
2023-08-14T13:01:04.886Z,35.98
2023-08-14T13:03:36.824Z,34.83
2023-08-14T13:06:07.114Z,34.57
2023-08-14T13:08:34.041Z,34.08
2023-08-14T13:11:01.029Z,33.62
2023-08-14T13:13:28.597Z,33.11
2023-08-14T13:15:56.808Z,32.78
2023-08-14T13:18:24.501Z,32.57
2023-08-14T13:20:51.794Z,32.38
2023-08-14T13:23:18.705Z,32.22
2023-08-14T13:25:45.586Z,32.05
2023-08-14T13:28:12.747Z,31.93
2023-08-14T13:30:41.534Z,31.94
2023-08-14T13:33:12.276Z,31.90
2023-08-14T13:35:39.228Z,31.81
2023-08-14T13:38:06.192Z,31.74
2023-08-14T13:40:33.184Z,31.72
2023-08-14T13:43:00.184Z,31.65
2023-08-14T13:45:27.361Z,31.55
2023-08-14T13:47:56.352Z,31.42
2023-08-14T13:50:34.337Z,31.33
2023-08-14T13:53:05.381Z,31.23
2023-08-14T13:55:34.157Z,31.10
2023-08-14T13:58:03.006Z,30.97
2023-08-14T14:00:31.422Z,30.88
2023-08-14T14:02:59.772Z,30.87
2023-08-14T14:05:27.765Z,30.81
2023-08-14T14:07:57.356Z,30.64
2023-08-14T14:10:26.547Z,30.60
2023-08-14T14:15:24.228Z,30.44
2023-08-14T14:17:52.041Z,30.28
2023-08-14T14:20:19.993Z,30.10
2023-08-14T14:22:46.887Z,30.08
2023-08-14T14:25:16.623Z,30.12
2023-08-14T14:27:43.930Z,30.25
2023-08-14T14:30:12.086Z,30.24
2023-08-14T14:32:39.271Z,30.13
2023-08-14T14:35:06.960Z,29.95
2023-08-14T14:37:34.150Z,29.89
2023-08-14T14:40:01.169Z,29.95
2023-08-14T14:42:28.157Z,30.16
2023-08-14T14:44:55.459Z,30.42
2023-08-14T14:47:25.907Z,30.59
2023-08-14T14:49:53.115Z,30.55
2023-08-14T14:52:20.413Z,30.47
2023-08-14T14:54:47.307Z,30.23
2023-08-14T14:57:14.246Z,30.09
2023-08-14T14:59:44.511Z,30.04
2023-08-14T15:02:27.617Z,30.46
2023-08-14T15:04:56.965Z,30.69
2023-08-14T15:07:23.914Z,30.72
2023-08-14T15:09:50.962Z,30.52
2023-08-14T15:12:17.924Z,30.28
2023-08-14T15:14:44.800Z,30.19
2023-08-14T15:17:12.234Z,30.38
2023-08-14T15:19:39.342Z,30.67
2023-08-14T15:22:06.447Z,30.65
2023-08-14T15:24:33.696Z,31.16
2023-08-14T15:27:00.614Z,31.56
2023-08-14T15:29:27.533Z,31.39
2023-08-14T15:31:54.596Z,31.14
2023-08-14T15:34:21.570Z,30.88
2023-08-14T15:36:48.651Z,30.52
2023-08-14T15:39:15.599Z,30.48
2023-08-14T15:41:43.396Z,30.39
2023-08-14T15:44:10.341Z,30.21
2023-08-14T15:46:37.230Z,30.04
2023-08-14T15:49:04.980Z,30.03
2023-08-14T15:51:31.936Z,29.89
2023-08-14T15:53:58.947Z,29.92
2023-08-14T15:56:26.186Z,29.88
2023-08-14T15:58:53.084Z,29.84
2023-08-14T16:01:20.138Z,29.68
2023-08-14T16:03:47.117Z,29.68
2023-08-14T16:06:14.235Z,29.69
2023-08-14T16:08:41.236Z,29.73
2023-08-14T16:11:08.244Z,29.67
2023-08-14T16:13:35.188Z,29.64
2023-08-14T16:16:02.093Z,29.64
2023-08-14T16:18:29.238Z,29.58
2023-08-14T16:20:57.110Z,29.52
2023-08-14T16:23:25.837Z,29.49
2023-08-14T16:25:52.871Z,29.52
2023-08-14T16:28:20.097Z,29.53
2023-08-14T16:30:46.980Z,29.50
2023-08-14T16:33:14.476Z,29.44
2023-08-14T16:35:41.453Z,29.41
2023-08-14T16:38:08.328Z,29.40
2023-08-14T16:40:43.501Z,29.38
2023-08-14T16:43:11.576Z,29.39
2023-08-14T16:45:39.417Z,29.36
2023-08-14T16:48:06.998Z,29.27
2023-08-14T16:50:38.684Z,29.20
2023-08-14T16:53:07.131Z,29.19
2023-08-14T16:55:34.725Z,29.12
2023-08-14T16:58:02.286Z,29.04
2023-08-14T17:00:30.258Z,28.99
2023-08-14T17:02:58.136Z,28.95
2023-08-14T17:05:25.647Z,28.92
2023-08-14T17:07:52.870Z,28.95
2023-08-14T17:10:19.846Z,28.95
2023-08-14T17:12:47.640Z,28.87
2023-08-14T17:15:15.215Z,28.75
2023-08-14T17:17:42.837Z,28.68
2023-08-14T17:20:11.592Z,28.59
2023-08-14T17:22:42.486Z,28.52
2023-08-14T17:25:10.110Z,28.48
2023-08-14T17:27:37.407Z,28.41
2023-08-14T17:30:04.988Z,28.41
2023-08-14T17:32:33.925Z,28.41
2023-08-14T17:35:00.895Z,28.45
2023-08-14T17:37:27.771Z,28.43
2023-08-14T17:39:55.803Z,28.30
2023-08-14T17:42:22.780Z,28.24
2023-08-14T17:44:49.914Z,28.23
2023-08-14T17:47:17.037Z,28.22
2023-08-14T17:49:44.681Z,28.17
2023-08-14T17:52:11.605Z,28.17
2023-08-14T17:54:38.546Z,28.15
2023-08-14T17:57:05.637Z,28.09
2023-08-14T17:59:32.661Z,28.06
2023-08-14T18:01:59.752Z,28.01
2023-08-14T18:04:26.698Z,27.96
2023-08-14T18:06:53.666Z,27.80
2023-08-14T18:09:20.666Z,27.72
2023-08-14T18:11:47.652Z,27.72
2023-08-14T18:14:14.985Z,27.69
2023-08-14T18:16:41.877Z,27.64
2023-08-14T18:19:27.921Z,27.65
2023-08-14T18:21:55.918Z,27.58
2023-08-14T18:24:22.981Z,27.49
2023-08-14T18:26:49.994Z,27.41
2023-08-14T18:29:18.576Z,27.32
2023-08-14T18:31:46.010Z,27.20
2023-08-14T18:34:13.069Z,27.03
2023-08-14T18:36:39.978Z,26.94
2023-08-14T18:39:06.866Z,26.81
2023-08-14T18:41:33.964Z,26.78
2023-08-14T18:44:00.883Z,26.74
2023-08-14T18:46:27.895Z,26.67
2023-08-14T18:48:55.427Z,26.61
2023-08-14T18:51:22.326Z,26.46
2023-08-14T18:53:51.519Z,26.40
2023-08-14T18:56:18.379Z,26.40
2023-08-14T18:58:48.414Z,26.37
2023-08-14T19:01:15.317Z,26.31
2023-08-14T19:03:42.928Z,26.11
2023-08-14T19:06:09.849Z,25.98
2023-08-14T19:08:36.724Z,25.87
2023-08-14T19:11:03.564Z,25.83
2023-08-14T19:13:30.680Z,25.74
2023-08-14T19:15:57.638Z,25.69
2023-08-14T19:18:24.764Z,25.64
2023-08-14T19:20:51.802Z,25.58
2023-08-14T19:23:18.641Z,25.48
2023-08-14T19:25:46.204Z,25.45
2023-08-14T19:28:21.587Z,25.45
2023-08-14T19:30:50.960Z,25.47
2023-08-14T19:33:18.056Z,25.50
2023-08-14T19:35:45.036Z,25.50
2023-08-14T19:38:12.182Z,25.40
2023-08-14T19:40:39.436Z,25.31
2023-08-14T19:43:06.332Z,25.31
2023-08-14T19:45:36.559Z,25.21
2023-08-14T19:48:04.432Z,25.10
2023-08-14T19:50:32.302Z,25.01
2023-08-14T19:53:00.163Z,24.92
2023-08-14T19:55:27.699Z,24.90
2023-08-14T19:57:54.886Z,24.84
2023-08-14T20:00:22.039Z,24.77
2023-08-14T20:02:51.607Z,24.72
2023-08-14T20:05:18.952Z,24.71
2023-08-14T20:07:45.803Z,24.74
2023-08-14T20:10:12.712Z,24.74
2023-08-14T20:12:39.969Z,24.68
2023-08-14T20:15:07.751Z,24.67
2023-08-14T20:17:34.733Z,24.67
2023-08-14T20:20:01.583Z,24.68
2023-08-14T20:22:28.643Z,24.66
2023-08-14T20:24:56.000Z,24.62
2023-08-14T20:27:23.033Z,24.61
2023-08-14T20:29:50.028Z,24.60
2023-08-14T20:32:16.912Z,24.61
2023-08-14T20:34:44.310Z,24.60
2023-08-14T20:37:12.051Z,24.56
2023-08-14T20:39:39.449Z,24.54
2023-08-14T20:42:06.468Z,24.52
2023-08-14T20:44:33.334Z,24.54
2023-08-14T20:47:00.389Z,24.43
2023-08-14T20:49:28.717Z,24.27
2023-08-14T20:51:55.537Z,24.26
2023-08-14T20:54:22.549Z,24.24
2023-08-14T20:56:50.464Z,24.24
2023-08-14T20:59:17.470Z,24.30
2023-08-14T21:01:46.951Z,24.32
2023-08-14T21:04:13.824Z,24.19
2023-08-14T21:06:40.760Z,24.13
2023-08-14T21:09:07.689Z,24.15
2023-08-14T21:11:34.531Z,24.14
2023-08-14T21:14:01.575Z,24.13
2023-08-14T21:16:28.546Z,24.07
2023-08-14T21:18:55.486Z,24.07
2023-08-14T21:21:22.538Z,24.09
2023-08-14T21:23:49.339Z,24.09
2023-08-14T21:26:16.485Z,24.11
2023-08-14T21:28:45.517Z,24.17
2023-08-14T21:31:13.461Z,24.09
2023-08-14T21:33:40.658Z,24.11
2023-08-14T21:36:07.642Z,24.08
2023-08-14T21:38:34.597Z,24.06
2023-08-14T21:41:04.895Z,24.06
2023-08-14T21:43:32.019Z,24.00
2023-08-14T21:45:59.016Z,23.93
2023-08-14T21:48:25.955Z,23.88
2023-08-14T21:50:53.103Z,23.86
2023-08-14T21:53:22.015Z,23.78
2023-08-14T21:55:50.617Z,23.75
2023-08-14T21:58:17.884Z,23.72
2023-08-14T22:00:45.194Z,23.71
2023-08-14T22:03:12.175Z,23.64
2023-08-14T22:05:39.123Z,23.64
2023-08-14T22:08:06.221Z,23.68
2023-08-14T22:10:33.090Z,23.61
2023-08-14T22:12:59.957Z,23.45
2023-08-14T22:15:36.716Z,23.38
2023-08-14T22:18:15.605Z,23.30
2023-08-14T22:20:46.408Z,23.18
2023-08-14T22:23:14.001Z,23.17
2023-08-14T22:25:45.674Z,23.25
2023-08-14T22:28:12.594Z,23.21
2023-08-14T22:30:40.417Z,23.26
2023-08-14T22:33:09.085Z,23.26
2023-08-14T22:35:36.260Z,23.29
2023-08-14T22:38:03.199Z,23.20
2023-08-14T22:40:30.141Z,23.12
2023-08-14T22:42:57.198Z,23.08
2023-08-14T22:45:26.111Z,23.05
2023-08-14T22:47:53.430Z,23.05
2023-08-14T22:50:20.471Z,22.99
2023-08-14T22:52:47.590Z,22.96
2023-08-14T22:55:14.600Z,22.96
2023-08-14T22:57:41.469Z,22.97
2023-08-14T23:00:10.172Z,22.95
2023-08-14T23:02:39.252Z,22.85
2023-08-14T23:05:08.902Z,22.81
2023-08-14T23:07:36.109Z,22.76
2023-08-14T23:10:03.041Z,22.78
2023-08-14T23:12:30.152Z,22.79
2023-08-14T23:14:57.351Z,22.79
2023-08-14T23:17:25.397Z,22.81
2023-08-14T23:19:52.811Z,22.72
2023-08-14T23:22:20.024Z,22.73
2023-08-14T23:24:47.127Z,22.77
2023-08-14T23:27:14.251Z,22.70
2023-08-14T23:29:41.285Z,22.65
2023-08-14T23:32:08.331Z,22.60
2023-08-14T23:34:35.753Z,22.60
2023-08-14T23:37:02.594Z,22.57
2023-08-14T23:39:30.481Z,22.60
2023-08-14T23:41:57.438Z,22.59
2023-08-14T23:44:24.439Z,22.63
2023-08-14T23:46:51.772Z,22.60
2023-08-14T23:49:18.801Z,22.55
2023-08-14T23:51:45.676Z,22.51
2023-08-14T23:54:12.637Z,22.49
2023-08-14T23:56:39.527Z,22.49
2023-08-14T23:59:06.332Z,22.45
